createdAt,value
2019-01-12T00:00:27.808Z,1027.06
2019-01-12T00:01:27.796Z,1027.12
2019-01-12T00:02:27.785Z,1027.04
2019-01-12T00:03:27.771Z,1027.15
2019-01-12T00:04:27.757Z,1027.08
2019-01-12T00:05:27.746Z,1027.12
2019-01-12T00:06:27.731Z,1027.16
2019-01-12T00:07:27.718Z,1027.16
2019-01-12T00:08:27.707Z,1027.16
2019-01-12T00:09:27.694Z,1027.13
2019-01-12T00:10:27.684Z,1027.16
2019-01-12T00:11:27.668Z,1027.19
2019-01-12T00:12:27.656Z,1027.13
2019-01-12T00:13:27.643Z,1027.16
2019-01-12T00:14:27.634Z,1027.12
2019-01-12T00:15:27.617Z,1027.08
2019-01-12T00:16:27.607Z,1027.15
2019-01-12T00:17:27.591Z,1027.1
2019-01-12T00:18:27.579Z,1027.15
2019-01-12T00:19:27.567Z,1027.12
2019-01-12T00:20:27.554Z,1027.21
2019-01-12T00:21:27.542Z,1027.19
2019-01-12T00:22:27.528Z,1027.16
2019-01-12T00:23:27.517Z,1027.32
2019-01-12T00:24:31.442Z,1027.24
2019-01-12T00:25:27.491Z,1027.24
2019-01-12T00:26:27.476Z,1027.18
2019-01-12T00:27:27.465Z,1027.2
2019-01-12T00:28:27.453Z,1027.21
2019-01-12T00:29:27.439Z,1027.17
2019-01-12T00:30:27.427Z,1027.19
2019-01-12T00:31:27.415Z,1027.25
2019-01-12T00:32:27.401Z,1027.22
2019-01-12T00:33:27.389Z,1027.25
2019-01-12T00:34:27.376Z,1027.23
2019-01-12T00:35:27.364Z,1027.27
2019-01-12T00:36:27.351Z,1027.3
2019-01-12T00:37:27.338Z,1027.31
2019-01-12T00:38:27.325Z,1027.28
2019-01-12T00:39:27.311Z,1027.27
2019-01-12T00:40:27.299Z,1027.29
2019-01-12T00:41:27.285Z,1027.29
2019-01-12T00:42:27.276Z,1027.29
2019-01-12T00:43:27.262Z,1027.29
2019-01-12T00:44:27.248Z,1027.33
2019-01-12T00:45:27.235Z,1027.32
2019-01-12T00:46:27.223Z,1027.47
2019-01-12T00:47:27.211Z,1027.41
2019-01-12T00:48:27.198Z,1027.31
2019-01-12T00:49:27.185Z,1027.42
2019-01-12T00:50:27.172Z,1027.45
2019-01-12T00:51:27.159Z,1027.39
2019-01-12T00:52:27.148Z,1027.43
2019-01-12T00:53:27.134Z,1027.45
2019-01-12T00:54:27.251Z,1027.59
2019-01-12T00:55:27.108Z,1027.64
2019-01-12T00:56:27.096Z,1027.63
2019-01-12T00:57:27.083Z,1027.58
2019-01-12T00:58:27.070Z,1027.63
2019-01-12T00:59:27.057Z,1027.62
2019-01-12T01:00:27.045Z,1027.67
2019-01-12T01:01:27.032Z,1027.61
2019-01-12T01:02:27.017Z,1027.6
2019-01-12T01:03:27.005Z,1027.57
2019-01-12T01:04:26.998Z,1027.54
2019-01-12T01:05:26.979Z,1027.55
2019-01-12T01:06:26.967Z,1027.58
2019-01-12T01:07:26.954Z,1027.57
2019-01-12T01:08:26.947Z,1027.54
2019-01-12T01:09:26.927Z,1027.64
2019-01-12T01:10:26.915Z,1027.64
2019-01-12T01:11:26.903Z,1027.66
2019-01-12T01:12:26.890Z,1027.67
2019-01-12T01:13:26.889Z,1027.77
2019-01-12T01:14:26.862Z,1027.73
2019-01-12T01:15:26.854Z,1027.78
2019-01-12T01:16:26.838Z,1027.78
2019-01-12T01:17:26.823Z,1027.76
2019-01-12T01:18:26.812Z,1027.74
2019-01-12T01:19:26.801Z,1027.74
2019-01-12T01:20:26.788Z,1027.78
2019-01-12T01:21:26.782Z,1027.73
2019-01-12T01:22:26.761Z,1027.7
2019-01-12T01:23:26.749Z,1027.68
2019-01-12T01:24:26.734Z,1027.7
2019-01-12T01:25:26.722Z,1027.68
2019-01-12T01:26:26.708Z,1027.74
2019-01-12T01:27:26.697Z,1027.72
2019-01-12T01:28:26.682Z,1027.78
2019-01-12T01:29:26.672Z,1027.82
2019-01-12T01:30:26.658Z,1027.8
2019-01-12T01:31:26.645Z,1027.86
2019-01-12T01:32:26.635Z,1027.87
2019-01-12T01:33:27.980Z,1027.93
2019-01-12T01:34:26.607Z,1027.99
2019-01-12T01:35:26.592Z,1027.95
2019-01-12T01:36:26.584Z,1027.97
2019-01-12T01:37:26.568Z,1028
2019-01-12T01:38:26.556Z,1028.01
2019-01-12T01:39:26.543Z,1027.97
2019-01-12T01:40:26.530Z,1028.01
2019-01-12T01:41:26.517Z,1028.01
2019-01-12T01:42:26.503Z,1028.03
2019-01-12T01:43:26.490Z,1028.01
2019-01-12T01:44:26.477Z,1028.03
2019-01-12T01:45:26.465Z,1028.06
2019-01-12T01:46:26.453Z,1028.04
2019-01-12T01:47:26.440Z,1028.01
2019-01-12T01:48:26.431Z,1028.04
2019-01-12T01:49:26.415Z,1028.04
2019-01-12T01:50:26.401Z,1028.04
2019-01-12T01:51:26.390Z,1028.04
2019-01-12T01:52:26.377Z,1028.04
2019-01-12T01:53:26.367Z,1028.01
2019-01-12T01:54:26.349Z,1028.03
2019-01-12T01:55:26.339Z,1028.11
2019-01-12T01:56:26.326Z,1028.18
2019-01-12T01:57:26.313Z,1028.21
2019-01-12T01:58:26.299Z,1028.25
2019-01-12T01:59:26.287Z,1028.23
2019-01-12T02:00:26.273Z,1028.22
2019-01-12T02:01:26.259Z,1028.24
2019-01-12T02:02:26.248Z,1028.17
2019-01-12T02:03:26.236Z,1028.25
2019-01-12T02:04:26.222Z,1028.21
2019-01-12T02:05:26.210Z,1028.26
2019-01-12T02:06:26.197Z,1028.27
2019-01-12T02:07:26.183Z,1028.2
2019-01-12T02:08:26.170Z,1028.23
2019-01-12T02:09:26.158Z,1028.24
2019-01-12T02:10:26.146Z,1028.18
2019-01-12T02:11:26.134Z,1028.26
2019-01-12T02:12:26.120Z,1028.26
2019-01-12T02:13:26.111Z,1028.26
2019-01-12T02:14:26.095Z,1028.25
2019-01-12T02:15:26.081Z,1028.23
2019-01-12T02:16:26.068Z,1028.26
2019-01-12T02:17:26.056Z,1028.27
2019-01-12T02:18:26.042Z,1028.17
2019-01-12T02:19:26.029Z,1028.19
2019-01-12T02:20:26.017Z,1028.17
2019-01-12T02:21:26.005Z,1028.21
2019-01-12T02:22:25.992Z,1028.21
2019-01-12T02:23:25.979Z,1028.23
2019-01-12T02:24:25.966Z,1028.29
2019-01-12T02:25:25.954Z,1028.25
2019-01-12T02:26:25.941Z,1028.24
2019-01-12T02:27:25.928Z,1028.2
2019-01-12T02:28:25.915Z,1028.24
2019-01-12T02:29:25.902Z,1028.29
2019-01-12T02:30:25.890Z,1028.25
2019-01-12T02:31:25.877Z,1028.26
2019-01-12T02:32:25.864Z,1028.31
2019-01-12T02:33:25.850Z,1028.35
2019-01-12T02:34:25.839Z,1028.33
2019-01-12T02:35:25.825Z,1028.3
2019-01-12T02:36:25.814Z,1028.27
2019-01-12T02:37:25.798Z,1028.28
2019-01-12T02:38:25.783Z,1028.2
2019-01-12T02:39:25.772Z,1028.22
2019-01-12T02:40:25.760Z,1028.24
2019-01-12T02:41:25.747Z,1028.23
2019-01-12T02:42:25.733Z,1028.23
2019-01-12T02:43:25.719Z,1028.23
2019-01-12T02:44:25.730Z,1028.21
2019-01-12T02:45:25.694Z,1028.22
2019-01-12T02:46:25.684Z,1028.27
2019-01-12T02:47:25.668Z,1028.28
2019-01-12T02:48:25.656Z,1028.3
2019-01-12T02:49:25.642Z,1028.29
2019-01-12T02:50:25.627Z,1028.3
2019-01-12T02:51:25.617Z,1028.28
2019-01-12T02:52:25.602Z,1028.28
2019-01-12T02:53:25.589Z,1028.31
2019-01-12T02:54:25.583Z,1028.31
2019-01-12T02:55:25.566Z,1028.33
2019-01-12T02:56:25.551Z,1028.35
2019-01-12T02:57:25.537Z,1028.28
2019-01-12T02:58:25.525Z,1028.31
2019-01-12T02:59:25.532Z,1028.28
2019-01-12T03:00:25.498Z,1028.31
2019-01-12T03:01:25.487Z,1028.29
2019-01-12T03:02:25.471Z,1028.23
2019-01-12T03:03:25.457Z,1028.2
2019-01-12T03:04:25.446Z,1028.29
2019-01-12T03:05:25.433Z,1028.2
2019-01-12T03:06:25.419Z,1028.24
2019-01-12T03:07:25.405Z,1028.25
2019-01-12T03:08:25.392Z,1028.24
2019-01-12T03:09:25.381Z,1028.25
2019-01-12T03:10:25.367Z,1028.21
2019-01-12T03:11:25.355Z,1028.19
2019-01-12T03:12:25.341Z,1028.15
2019-01-12T03:13:25.330Z,1028.14
2019-01-12T03:14:25.347Z,1028.16
2019-01-12T03:15:25.300Z,1028.13
2019-01-12T03:16:25.289Z,1028.16
2019-01-12T03:17:25.274Z,1028.18
2019-01-12T03:18:25.262Z,1028.16
2019-01-12T03:19:25.249Z,1028.18
2019-01-12T03:20:25.236Z,1028.16
2019-01-12T03:21:25.222Z,1028.16
2019-01-12T03:22:25.209Z,1028.15
2019-01-12T03:23:25.197Z,1028.17
2019-01-12T03:24:25.190Z,1028.09
2019-01-12T03:25:25.170Z,1028.03
2019-01-12T03:26:25.158Z,1028.02
2019-01-12T03:27:25.145Z,1028.03
2019-01-12T03:28:25.131Z,1028.05
2019-01-12T03:29:25.120Z,1028.07
2019-01-12T03:30:25.110Z,1028.13
2019-01-12T03:31:25.094Z,1028.1
2019-01-12T03:32:25.079Z,1028.19
2019-01-12T03:33:25.075Z,1028.2
2019-01-12T03:34:25.053Z,1028.25
2019-01-12T03:35:25.040Z,1028.24
2019-01-12T03:36:25.027Z,1028.25
2019-01-12T03:37:25.013Z,1028.19
2019-01-12T03:38:25.003Z,1028.16
2019-01-12T03:39:24.988Z,1028.19
2019-01-12T03:40:24.982Z,1028.17
2019-01-12T03:41:24.961Z,1028.18
2019-01-12T03:42:24.947Z,1028.19
2019-01-12T03:43:24.937Z,1028.16
2019-01-12T03:44:24.921Z,1028.16
2019-01-12T03:45:24.912Z,1028.12
2019-01-12T03:46:24.895Z,1028.12
2019-01-12T03:47:24.882Z,1028.09
2019-01-12T03:48:24.869Z,1028.09
2019-01-12T03:49:24.858Z,1028.1
2019-01-12T03:50:24.843Z,1028.05
2019-01-12T03:51:24.830Z,1028.02
2019-01-12T03:52:24.816Z,1028.03
2019-01-12T03:53:25.055Z,1027.97
2019-01-12T03:54:24.795Z,1027.95
2019-01-12T03:55:25.656Z,1027.94
2019-01-12T03:56:24.765Z,1027.99
2019-01-12T03:57:24.752Z,1027.95
2019-01-12T03:58:24.739Z,1027.95
2019-01-12T03:59:24.728Z,1027.98
2019-01-12T04:00:24.713Z,1027.91
2019-01-12T04:01:24.700Z,1027.89
2019-01-12T04:02:24.687Z,1027.89
2019-01-12T04:03:24.673Z,1027.92
2019-01-12T04:04:24.661Z,1027.92
2019-01-12T04:05:24.652Z,1027.92
2019-01-12T04:06:24.634Z,1027.94
2019-01-12T04:07:24.622Z,1027.92
2019-01-12T04:08:24.610Z,1027.92
2019-01-12T04:09:24.596Z,1027.85
2019-01-12T04:10:24.588Z,1027.86
2019-01-12T04:11:24.570Z,1027.81
2019-01-12T04:12:24.555Z,1027.84
2019-01-12T04:13:24.544Z,1027.8
2019-01-12T04:14:24.531Z,1027.74
2019-01-12T04:15:24.528Z,1027.76
2019-01-12T04:16:24.505Z,1027.72
2019-01-12T04:17:24.492Z,1027.75
2019-01-12T04:18:24.479Z,1027.76
2019-01-12T04:19:24.465Z,1027.75
2019-01-12T04:20:24.452Z,1027.73
2019-01-12T04:21:24.444Z,1027.76
2019-01-12T04:22:24.427Z,1027.72
2019-01-12T04:23:24.413Z,1027.73
2019-01-12T04:24:24.401Z,1027.77
2019-01-12T04:25:24.389Z,1027.82
2019-01-12T04:26:24.376Z,1027.81
2019-01-12T04:27:24.377Z,1027.83
2019-01-12T04:28:24.349Z,1027.8
2019-01-12T04:29:24.337Z,1027.82
2019-01-12T04:30:24.324Z,1027.78
2019-01-12T04:31:24.309Z,1027.76
2019-01-12T04:32:24.296Z,1027.81
2019-01-12T04:33:24.285Z,1027.76
2019-01-12T04:34:24.270Z,1027.75
2019-01-12T04:35:24.258Z,1027.7
2019-01-12T04:36:24.251Z,1027.72
2019-01-12T04:37:24.232Z,1027.67
2019-01-12T04:38:24.218Z,1027.72
2019-01-12T04:39:24.207Z,1027.72
2019-01-12T04:40:24.193Z,1027.74
2019-01-12T04:41:24.179Z,1027.8
2019-01-12T04:42:24.166Z,1027.81
2019-01-12T04:43:24.154Z,1027.81
2019-01-12T04:44:24.141Z,1027.82
2019-01-12T04:45:24.128Z,1027.85
2019-01-12T04:46:24.113Z,1027.89
2019-01-12T04:47:24.102Z,1027.9
2019-01-12T04:48:24.097Z,1027.89
2019-01-12T04:49:24.075Z,1027.93
2019-01-12T04:50:24.063Z,1027.9
2019-01-12T04:51:24.050Z,1027.9
2019-01-12T04:52:24.036Z,1027.86
2019-01-12T04:53:24.024Z,1027.84
2019-01-12T04:54:24.013Z,1027.75
2019-01-12T04:55:23.996Z,1027.79
2019-01-12T04:56:23.984Z,1027.79
2019-01-12T04:57:23.971Z,1027.75
2019-01-12T04:58:23.961Z,1027.75
2019-01-12T04:59:23.946Z,1027.7
2019-01-12T05:00:23.932Z,1027.71
2019-01-12T05:01:23.919Z,1027.73
2019-01-12T05:02:23.906Z,1027.73
2019-01-12T05:03:23.917Z,1027.73
2019-01-12T05:04:23.881Z,1027.77
2019-01-12T05:05:23.867Z,1027.78
2019-01-12T05:06:23.855Z,1027.81
2019-01-12T05:07:23.841Z,1027.81
2019-01-12T05:08:23.829Z,1027.85
2019-01-12T05:09:23.816Z,1027.86
2019-01-12T05:10:23.804Z,1027.79
2019-01-12T05:11:23.788Z,1027.8
2019-01-12T05:12:23.778Z,1027.77
2019-01-12T05:13:23.764Z,1027.76
2019-01-12T05:14:23.751Z,1027.77
2019-01-12T05:15:23.736Z,1027.73
2019-01-12T05:16:23.724Z,1027.78
2019-01-12T05:17:23.711Z,1027.82
2019-01-12T05:18:23.698Z,1027.76
2019-01-12T05:19:23.684Z,1027.82
2019-01-12T05:20:23.670Z,1027.83
2019-01-12T05:21:23.668Z,1027.8
2019-01-12T05:22:23.646Z,1027.8
2019-01-12T05:23:23.632Z,1027.8
2019-01-12T05:24:23.620Z,1027.82
2019-01-12T05:25:23.608Z,1027.82
2019-01-12T05:26:23.593Z,1027.83
2019-01-12T05:27:23.592Z,1027.85
2019-01-12T05:28:23.567Z,1027.82
2019-01-12T05:29:23.554Z,1027.81
2019-01-12T05:30:23.549Z,1027.81
2019-01-12T05:31:23.529Z,1027.77
2019-01-12T05:32:23.514Z,1027.82
2019-01-12T05:33:23.501Z,1027.78
2019-01-12T05:34:23.488Z,1027.76
2019-01-12T05:35:23.477Z,1027.72
2019-01-12T05:36:23.463Z,1027.7
2019-01-12T05:37:23.450Z,1027.72
2019-01-12T05:38:23.438Z,1027.74
2019-01-12T05:39:23.424Z,1027.73
2019-01-12T05:40:23.413Z,1027.78
2019-01-12T05:41:23.399Z,1027.81
2019-01-12T05:42:23.389Z,1027.78
2019-01-12T05:43:23.381Z,1027.75
2019-01-12T05:44:23.359Z,1027.79
2019-01-12T05:45:23.347Z,1027.78
2019-01-12T05:46:23.332Z,1027.76
2019-01-12T05:47:23.318Z,1027.75
2019-01-12T05:48:23.307Z,1027.7
2019-01-12T05:49:23.294Z,1027.78
2019-01-12T05:50:23.282Z,1027.72
2019-01-12T05:51:23.277Z,1027.81
2019-01-12T05:52:23.255Z,1027.8
2019-01-12T05:53:23.244Z,1027.83
2019-01-12T05:54:23.229Z,1027.83
2019-01-12T05:55:23.216Z,1027.8
2019-01-12T05:56:23.203Z,1027.8
2019-01-12T05:57:23.190Z,1027.78
2019-01-12T05:58:23.177Z,1027.74
2019-01-12T05:59:23.164Z,1027.71
2019-01-12T06:00:23.151Z,1027.69
2019-01-12T06:01:23.138Z,1027.72
2019-01-12T06:02:23.124Z,1027.72
2019-01-12T06:03:23.112Z,1027.72
2019-01-12T06:04:23.099Z,1027.74
2019-01-12T06:05:23.085Z,1027.78
2019-01-12T06:06:23.072Z,1027.78
2019-01-12T06:07:23.060Z,1027.78
2019-01-12T06:08:23.047Z,1027.8
2019-01-12T06:09:23.031Z,1027.78
2019-01-12T06:10:23.020Z,1027.77
2019-01-12T06:11:23.007Z,1027.8
2019-01-12T06:12:22.995Z,1027.78
2019-01-12T06:13:22.980Z,1027.72
2019-01-12T06:14:22.968Z,1027.76
2019-01-12T06:15:22.955Z,1027.8
2019-01-12T06:16:22.940Z,1027.76
2019-01-12T06:17:22.929Z,1027.77
2019-01-12T06:18:22.916Z,1027.73
2019-01-12T06:19:22.903Z,1027.7
2019-01-12T06:20:22.890Z,1027.78
2019-01-12T06:21:22.878Z,1027.74
2019-01-12T06:22:22.863Z,1027.76
2019-01-12T06:23:22.851Z,1027.81
2019-01-12T06:24:22.837Z,1027.77
2019-01-12T06:25:22.827Z,1027.82
2019-01-12T06:26:22.812Z,1027.8
2019-01-12T06:27:22.798Z,1027.91
2019-01-12T06:28:22.785Z,1027.91
2019-01-12T06:29:22.772Z,1027.88
2019-01-12T06:30:22.759Z,1027.83
2019-01-12T06:31:22.746Z,1027.9
2019-01-12T06:32:22.733Z,1027.91
2019-01-12T06:33:22.719Z,1027.9
2019-01-12T06:34:22.721Z,1027.92
2019-01-12T06:35:22.695Z,1027.89
2019-01-12T06:36:22.682Z,1027.9
2019-01-12T06:37:22.669Z,1027.93
2019-01-12T06:38:22.717Z,1027.93
2019-01-12T06:39:22.641Z,1027.97
2019-01-12T06:40:22.628Z,1027.96
2019-01-12T06:41:22.615Z,1027.94
2019-01-12T06:42:22.601Z,1027.96
2019-01-12T06:43:22.588Z,1027.95
2019-01-12T06:44:22.577Z,1027.95
2019-01-12T06:45:22.564Z,1027.88
2019-01-12T06:46:22.550Z,1027.87
2019-01-12T06:47:22.537Z,1027.9
2019-01-12T06:48:22.524Z,1027.9
2019-01-12T06:49:22.510Z,1027.91
2019-01-12T06:50:22.499Z,1027.92
2019-01-12T06:51:22.484Z,1027.93
2019-01-12T06:52:22.472Z,1027.95
2019-01-12T06:53:22.457Z,1027.87
2019-01-12T06:54:22.547Z,1027.95
2019-01-12T06:55:22.432Z,1027.93
2019-01-12T06:56:22.420Z,1027.94
2019-01-12T06:57:22.406Z,1027.92
2019-01-12T06:58:22.393Z,1027.94
2019-01-12T06:59:22.380Z,1027.92
2019-01-12T07:00:22.367Z,1027.89
2019-01-12T07:01:22.353Z,1027.91
2019-01-12T07:02:22.340Z,1027.91
2019-01-12T07:03:22.328Z,1027.94
2019-01-12T07:04:22.314Z,1027.9
2019-01-12T07:05:22.301Z,1027.89
2019-01-12T07:06:22.295Z,1027.87
2019-01-12T07:07:22.275Z,1027.91
2019-01-12T07:08:22.262Z,1027.94
2019-01-12T07:09:22.250Z,1027.91
2019-01-12T07:10:22.238Z,1027.91
2019-01-12T07:11:22.223Z,1027.85
2019-01-12T07:12:22.211Z,1027.82
2019-01-12T07:13:22.198Z,1027.85
2019-01-12T07:14:22.189Z,1027.84
2019-01-12T07:15:22.171Z,1027.85
2019-01-12T07:16:22.159Z,1027.82
2019-01-12T07:17:22.146Z,1027.74
2019-01-12T07:18:22.133Z,1027.62
2019-01-12T07:19:22.119Z,1027.64
2019-01-12T07:20:22.105Z,1027.66
2019-01-12T07:21:22.094Z,1027.64
2019-01-12T07:22:22.080Z,1027.66
2019-01-12T07:23:22.068Z,1027.69
2019-01-12T07:24:22.053Z,1027.59
2019-01-12T07:25:22.042Z,1027.58
2019-01-12T07:26:22.029Z,1027.58
2019-01-12T07:27:22.016Z,1027.56
2019-01-12T07:28:22.003Z,1027.57
2019-01-12T07:29:21.990Z,1027.56
2019-01-12T07:30:21.982Z,1027.54
2019-01-12T07:31:21.965Z,1027.46
2019-01-12T07:32:21.952Z,1027.4
2019-01-12T07:33:21.939Z,1027.4
2019-01-12T07:34:21.926Z,1027.42
2019-01-12T07:35:21.913Z,1027.42
2019-01-12T07:36:21.901Z,1027.43
2019-01-12T07:37:21.890Z,1027.42
2019-01-12T07:38:21.873Z,1027.4
2019-01-12T07:39:21.861Z,1027.37
2019-01-12T07:40:21.850Z,1027.37
2019-01-12T07:41:21.836Z,1027.37
2019-01-12T07:42:22.109Z,1027.34
2019-01-12T07:43:21.812Z,1027.37
2019-01-12T07:44:21.798Z,1027.31
2019-01-12T07:45:21.785Z,1027.3
2019-01-12T07:46:21.772Z,1027.26
2019-01-12T07:47:21.760Z,1027.24
2019-01-12T07:48:21.750Z,1027.22
2019-01-12T07:49:21.735Z,1027.21
2019-01-12T07:50:21.721Z,1027.21
2019-01-12T07:51:21.712Z,1027.15
2019-01-12T07:52:21.697Z,1027.13
2019-01-12T07:53:21.685Z,1027.08
2019-01-12T07:54:21.673Z,1027.14
2019-01-12T07:55:21.685Z,1027.19
2019-01-12T07:56:24.520Z,1027.11
2019-01-12T07:57:21.637Z,1027.11
2019-01-12T07:58:21.623Z,1027.17
2019-01-12T07:59:21.610Z,1027.14
2019-01-12T08:00:21.599Z,1027.17
2019-01-12T08:01:21.585Z,1027.14
2019-01-12T08:02:21.573Z,1027.15
2019-01-12T08:03:21.561Z,1027.16
2019-01-12T08:04:21.548Z,1027.14
2019-01-12T08:05:21.538Z,1027.14
2019-01-12T08:06:21.523Z,1027.08
2019-01-12T08:07:21.511Z,1027.07
2019-01-12T08:08:21.499Z,1027.06
2019-01-12T08:09:21.487Z,1027.06
2019-01-12T08:10:21.474Z,1027.04
2019-01-12T08:11:21.462Z,1027.04
2019-01-12T08:12:21.449Z,1027.04
2019-01-12T08:13:21.436Z,1027.02
2019-01-12T08:14:21.425Z,1027.05
2019-01-12T08:15:21.413Z,1027.06
2019-01-12T08:16:21.401Z,1027.04
2019-01-12T08:17:21.389Z,1027.03
2019-01-12T08:18:21.379Z,1027.03
2019-01-12T08:19:21.364Z,1027.09
2019-01-12T08:20:21.352Z,1027.09
2019-01-12T08:21:21.339Z,1027.06
2019-01-12T08:22:21.327Z,1027.04
2019-01-12T08:23:21.314Z,1027.05
2019-01-12T08:24:21.302Z,1027.02
2019-01-12T08:25:21.290Z,1026.98
2019-01-12T08:26:21.278Z,1026.99
2019-01-12T08:27:21.267Z,1026.96
2019-01-12T08:28:21.254Z,1026.87
2019-01-12T08:29:21.241Z,1026.8
2019-01-12T08:30:21.232Z,1026.86
2019-01-12T08:31:21.218Z,1026.82
2019-01-12T08:32:21.205Z,1026.7
2019-01-12T08:33:21.196Z,1026.65
2019-01-12T08:34:21.181Z,1026.66
2019-01-12T08:35:21.168Z,1026.59
2019-01-12T08:36:21.155Z,1026.53
2019-01-12T08:37:21.144Z,1026.58
2019-01-12T08:38:21.133Z,1026.53
2019-01-12T08:39:21.120Z,1026.43
2019-01-12T08:40:21.107Z,1026.41
2019-01-12T08:41:21.096Z,1026.37
2019-01-12T08:42:21.084Z,1026.37
2019-01-12T08:43:21.073Z,1026.33
2019-01-12T08:44:21.061Z,1026.3
2019-01-12T08:45:21.050Z,1026.26
2019-01-12T08:46:21.037Z,1026.19
2019-01-12T08:47:21.025Z,1026.19
2019-01-12T08:48:21.014Z,1026.2
2019-01-12T08:49:21.002Z,1026.24
2019-01-12T08:50:20.991Z,1026.23
2019-01-12T08:51:20.978Z,1026.18
2019-01-12T08:52:20.966Z,1026.2
2019-01-12T08:53:20.953Z,1026.19
2019-01-12T08:54:20.941Z,1026.18
2019-01-12T08:55:20.932Z,1026.13
2019-01-12T08:56:20.919Z,1026.11
2019-01-12T08:57:20.906Z,1026.08
2019-01-12T08:58:20.895Z,1026.09
2019-01-12T08:59:20.884Z,1026.06
2019-01-12T09:00:20.871Z,1026.14
2019-01-12T09:01:20.859Z,1026.15
2019-01-12T09:02:20.848Z,1026.17
2019-01-12T09:03:20.837Z,1026.16
2019-01-12T09:04:20.824Z,1026.17
2019-01-12T09:05:20.813Z,1026.18
2019-01-12T09:06:20.801Z,1026.09
2019-01-12T09:07:20.790Z,1026.1
2019-01-12T09:08:20.777Z,1026.01
2019-01-12T09:09:20.767Z,1025.93
2019-01-12T09:10:20.754Z,1025.89
2019-01-12T09:11:20.744Z,1025.81
2019-01-12T09:12:20.730Z,1025.8
2019-01-12T09:13:20.719Z,1025.91
2019-01-12T09:14:20.707Z,1025.85
2019-01-12T09:15:20.695Z,1025.91
2019-01-12T09:16:20.684Z,1025.85
2019-01-12T09:17:20.672Z,1025.83
2019-01-12T09:18:20.660Z,1025.78
2019-01-12T09:19:20.651Z,1025.75
2019-01-12T09:20:20.659Z,1025.8
2019-01-12T09:21:20.626Z,1025.74
2019-01-12T09:22:20.615Z,1025.75
2019-01-12T09:23:20.602Z,1025.82
2019-01-12T09:24:20.590Z,1025.84
2019-01-12T09:25:20.580Z,1025.82
2019-01-12T09:26:20.568Z,1025.74
2019-01-12T09:27:20.556Z,1025.72
2019-01-12T09:28:20.546Z,1025.77
2019-01-12T09:29:20.534Z,1025.78
2019-01-12T09:30:20.522Z,1025.72
2019-01-12T09:31:20.510Z,1025.72
2019-01-12T09:32:20.499Z,1025.67
2019-01-12T09:33:20.490Z,1025.68
2019-01-12T09:34:20.476Z,1025.69
2019-01-12T09:35:20.465Z,1025.61
2019-01-12T09:36:20.456Z,1025.56
2019-01-12T09:37:20.441Z,1025.47
2019-01-12T09:38:20.429Z,1025.44
2019-01-12T09:39:20.417Z,1025.44
2019-01-12T09:40:20.407Z,1025.35
2019-01-12T09:41:20.398Z,1025.3
2019-01-12T09:42:20.384Z,1025.21
2019-01-12T09:43:20.372Z,1025.13
2019-01-12T09:44:20.362Z,1025.12
2019-01-12T09:45:20.352Z,1025.06
2019-01-12T09:46:20.339Z,1025.1
2019-01-12T09:47:20.328Z,1025.06
2019-01-12T09:48:20.314Z,1025.01
2019-01-12T09:49:20.303Z,1025.06
2019-01-12T09:50:20.293Z,1025.09
2019-01-12T09:51:20.283Z,1025.04
2019-01-12T09:52:20.571Z,1024.92
2019-01-12T09:53:20.260Z,1024.92
2019-01-12T09:54:20.248Z,1024.85
2019-01-12T09:55:20.238Z,1024.77
2019-01-12T09:56:20.229Z,1024.74
2019-01-12T09:57:20.215Z,1024.67
2019-01-12T09:58:20.205Z,1024.6
2019-01-12T09:59:20.193Z,1024.62
2019-01-12T10:00:20.181Z,1024.57
2019-01-12T10:01:20.171Z,1024.54
2019-01-12T10:02:20.160Z,1024.57
2019-01-12T10:03:20.149Z,1024.58
2019-01-12T10:04:20.138Z,1024.48
2019-01-12T10:05:20.128Z,1024.54
2019-01-12T10:06:20.118Z,1024.53
2019-01-12T10:07:20.105Z,1024.52
2019-01-12T10:08:20.095Z,1024.54
2019-01-12T10:09:20.083Z,1024.49
2019-01-12T10:10:20.116Z,1024.45
2019-01-12T10:11:20.061Z,1024.41
2019-01-12T10:12:20.051Z,1024.39
2019-01-12T10:13:20.040Z,1024.35
2019-01-12T10:14:20.029Z,1024.37
2019-01-12T10:15:20.018Z,1024.35
2019-01-12T10:16:20.006Z,1024.37
2019-01-12T10:17:19.996Z,1024.38
2019-01-12T10:18:19.986Z,1024.35
2019-01-12T10:19:19.976Z,1024.32
2019-01-12T10:20:19.968Z,1024.32
2019-01-12T10:21:19.956Z,1024.24
2019-01-12T10:22:19.944Z,1024.17
2019-01-12T10:23:19.933Z,1024.16
2019-01-12T10:24:19.922Z,1024.17
2019-01-12T10:25:19.911Z,1024.15
2019-01-12T10:26:19.900Z,1024.16
2019-01-12T10:27:19.890Z,1024.16
2019-01-12T10:28:19.883Z,1024.07
2019-01-12T10:29:19.871Z,1024.03
2019-01-12T10:30:19.859Z,1024.01
2019-01-12T10:31:19.846Z,1024.06
2019-01-12T10:32:19.835Z,1024.07
2019-01-12T10:33:19.825Z,1024.1
2019-01-12T10:34:19.814Z,1024.09
2019-01-12T10:35:19.804Z,1024.14
2019-01-12T10:36:19.793Z,1024.08
2019-01-12T10:37:19.783Z,1024.07
2019-01-12T10:38:19.772Z,1024.04
2019-01-12T10:39:19.761Z,1024.06
2019-01-12T10:40:19.749Z,1024.11
2019-01-12T10:41:19.739Z,1024.11
2019-01-12T10:42:19.732Z,1024.06
2019-01-12T10:43:19.717Z,1024.06
2019-01-12T10:44:19.707Z,1024.03
2019-01-12T10:45:19.697Z,1023.95
2019-01-12T10:46:19.686Z,1023.8
2019-01-12T10:47:19.674Z,1023.73
2019-01-12T10:48:19.665Z,1023.67
2019-01-12T10:49:19.655Z,1023.57
2019-01-12T10:50:19.643Z,1023.62
2019-01-12T10:51:19.633Z,1023.58
2019-01-12T10:52:19.621Z,1023.59
2019-01-12T10:53:19.611Z,1023.43
2019-01-12T10:54:19.600Z,1023.44
2019-01-12T10:55:19.592Z,1023.42
2019-01-12T10:56:19.580Z,1023.43
2019-01-12T10:57:19.570Z,1023.49
2019-01-12T10:58:19.558Z,1023.43
2019-01-12T10:59:19.549Z,1023.41
2019-01-12T11:00:19.539Z,1023.43
2019-01-12T11:01:19.528Z,1023.44
2019-01-12T11:02:19.518Z,1023.44
2019-01-12T11:03:19.508Z,1023.46
2019-01-12T11:04:19.498Z,1023.44
2019-01-12T11:05:19.486Z,1023.37
2019-01-12T11:06:19.476Z,1023.37
2019-01-12T11:07:19.466Z,1023.36
2019-01-12T11:08:19.456Z,1023.3
2019-01-12T11:09:19.449Z,1023.15
2019-01-12T11:10:19.434Z,1023.08
2019-01-12T11:11:19.423Z,1023.08
2019-01-12T11:12:19.414Z,1023.05
2019-01-12T11:13:19.404Z,1022.98
2019-01-12T11:14:19.393Z,1023.01
2019-01-12T11:15:19.385Z,1023.05
2019-01-12T11:16:19.373Z,1023.05
2019-01-12T11:17:19.362Z,1023.04
2019-01-12T11:18:19.352Z,1023.09
2019-01-12T11:19:19.344Z,1023.09
2019-01-12T11:20:19.332Z,1023.04
2019-01-12T11:21:19.322Z,1023.21
2019-01-12T11:22:19.315Z,1023.09
2019-01-12T11:23:19.301Z,1023.08
2019-01-12T11:24:19.292Z,1023.11
2019-01-12T11:25:19.281Z,1023.14
2019-01-12T11:26:19.271Z,1023.13
2019-01-12T11:27:19.260Z,1023.14
2019-01-12T11:28:19.249Z,1023.2
2019-01-12T11:29:19.238Z,1023.2
2019-01-12T11:30:19.228Z,1023.18
2019-01-12T11:31:19.852Z,1023.2
2019-01-12T11:32:19.209Z,1023.22
2019-01-12T11:33:19.202Z,1023.15
2019-01-12T11:34:19.189Z,1023.2
2019-01-12T11:35:19.177Z,1023.22
2019-01-12T11:36:19.166Z,1023.19
2019-01-12T11:37:19.157Z,1023.1
2019-01-12T11:38:19.159Z,1023.1
2019-01-12T11:39:19.136Z,1023.04
2019-01-12T11:40:19.125Z,1022.93
2019-01-12T11:41:19.115Z,1022.92
2019-01-12T11:42:19.104Z,1022.88
2019-01-12T11:43:19.094Z,1022.86
2019-01-12T11:44:19.085Z,1022.8
2019-01-12T11:45:19.073Z,1022.83
2019-01-12T11:46:19.067Z,1022.85
2019-01-12T11:47:19.053Z,1022.76
2019-01-12T11:48:19.042Z,1022.69
2019-01-12T11:49:19.032Z,1022.58
2019-01-12T11:50:19.020Z,1022.52
2019-01-12T11:51:19.010Z,1022.46
2019-01-12T11:52:19.002Z,1022.33
2019-01-12T11:53:18.992Z,1022.27
2019-01-12T11:54:18.982Z,1022.3
2019-01-12T11:55:18.981Z,1022.27
2019-01-12T11:56:18.961Z,1022.35
2019-01-12T11:57:19.425Z,1022.38
2019-01-12T11:58:18.941Z,1022.39
2019-01-12T11:59:18.930Z,1022.42
2019-01-12T12:00:18.919Z,1022.38
2019-01-12T12:01:18.910Z,1022.46
2019-01-12T12:02:18.901Z,1022.49
2019-01-12T12:03:18.889Z,1022.56
2019-01-12T12:04:18.880Z,1022.5
2019-01-12T12:05:18.879Z,1022.57
2019-01-12T12:06:18.860Z,1022.62
2019-01-12T12:07:18.851Z,1022.6
2019-01-12T12:08:18.838Z,1022.63